sensor_id;sensor_type;location;lat;lon;timestamp;pressure;altitude;pressure_sealevel;temperature;humidity
65553;BME280;72126;51.560;14.368;2024-03-08T00:01:49;100997.41;;;9.96;61.68
65553;BME280;72126;51.560;14.368;2024-03-08T00:04:14;100986.25;;;9.94;61.87
65553;BME280;72126;51.560;14.368;2024-03-08T00:06:39;100991.34;;;9.95;61.52
65553;BME280;72126;51.560;14.368;2024-03-08T00:09:05;100993.13;;;9.95;61.51
65553;BME280;72126;51.560;14.368;2024-03-08T00:11:30;100988.03;;;9.93;61.61
65553;BME280;72126;51.560;14.368;2024-03-08T00:13:55;100988.03;;;9.93;61.63
65553;BME280;72126;51.560;14.368;2024-03-08T00:16:20;100988.03;;;9.93;61.70
65553;BME280;72126;51.560;14.368;2024-03-08T00:18:45;100984.56;;;9.93;61.75
65553;BME280;72126;51.560;14.368;2024-03-08T00:21:10;100988.03;;;9.93;61.87
65553;BME280;72126;51.560;14.368;2024-03-08T00:23:36;100987.34;;;9.91;61.74
65553;BME280;72126;51.560;14.368;2024-03-08T00:26:01;100983.88;;;9.91;61.60
65553;BME280;72126;51.560;14.368;2024-03-08T00:28:26;100980.44;;;9.90;61.50
65553;BME280;72126;51.560;14.368;2024-03-08T00:30:51;100982.09;;;9.91;61.78
65553;BME280;72126;51.560;14.368;2024-03-08T00:33:16;100976.19;;;9.89;61.80
65553;BME280;72126;51.560;14.368;2024-03-08T00:35:42;100982.38;;;9.88;61.88
65553;BME280;72126;51.560;14.368;2024-03-08T00:38:07;100987.63;;;9.88;61.68
65553;BME280;72126;51.560;14.368;2024-03-08T00:40:32;100979.88;;;9.87;61.75
65553;BME280;72126;51.560;14.368;2024-03-08T00:42:57;100972.03;;;9.87;61.75
65553;BME280;72126;51.560;14.368;2024-03-08T00:45:22;100978.09;;;9.87;61.84
65553;BME280;72126;51.560;14.368;2024-03-08T00:47:47;100970.38;;;9.86;61.45
65553;BME280;72126;51.560;14.368;2024-03-08T00:50:13;100969.72;;;9.84;61.64
65553;BME280;72126;51.560;14.368;2024-03-08T00:52:38;100966.13;;;9.85;61.78
65553;BME280;72126;51.560;14.368;2024-03-08T00:55:03;100964.47;;;9.84;61.59
65553;BME280;72126;51.560;14.368;2024-03-08T00:57:29;100954.97;;;9.83;61.86
65553;BME280;72126;51.560;14.368;2024-03-08T00:59:54;100958.41;;;9.83;61.23
65553;BME280;72126;51.560;14.368;2024-03-08T01:02:19;100956.78;;;9.82;61.46
65553;BME280;72126;51.560;14.368;2024-03-08T01:04:45;100959.38;;;9.82;61.81
65553;BME280;72126;51.560;14.368;2024-03-08T01:07:10;100963.75;;;9.81;61.72
65553;BME280;72126;51.560;14.368;2024-03-08T01:09:35;100954.28;;;9.80;61.82
65553;BME280;72126;51.560;14.368;2024-03-08T01:12:00;100955.25;;;9.79;61.64
65553;BME280;72126;51.560;14.368;2024-03-08T01:14:25;100952.75;;;9.78;61.42
65553;BME280;72126;51.560;14.368;2024-03-08T01:16:51;100947.41;;;9.79;61.41
65553;BME280;72126;51.560;14.368;2024-03-08T01:19:18;100951.81;;;9.79;61.38
65553;BME280;72126;51.560;14.368;2024-03-08T01:21:44;100951.94;;;9.77;61.39
65553;BME280;72126;51.560;14.368;2024-03-08T01:24:09;100944.91;;;9.78;61.23
65553;BME280;72126;51.560;14.368;2024-03-08T01:26:34;100943.28;;;9.77;61.80
65553;BME280;72126;51.560;14.368;2024-03-08T01:29:00;100946.81;;;9.76;61.73
65553;BME280;72126;51.560;14.368;2024-03-08T01:31:25;100943.38;;;9.75;61.42
65553;BME280;72126;51.560;14.368;2024-03-08T01:33:51;100943.38;;;9.75;61.71
65553;BME280;72126;51.560;14.368;2024-03-08T01:36:16;100933.91;;;9.74;61.87
65553;BME280;72126;51.560;14.368;2024-03-08T01:38:42;100941.75;;;9.74;61.32
65553;BME280;72126;51.560;14.368;2024-03-08T01:41:07;100936.66;;;9.73;61.54
65553;BME280;72126;51.560;14.368;2024-03-08T01:43:33;100930.44;;;9.74;61.46
65553;BME280;72126;51.560;14.368;2024-03-08T01:45:58;100927.97;;;9.72;61.38
65553;BME280;72126;51.560;14.368;2024-03-08T01:48:24;100924.53;;;9.72;61.79
65553;BME280;72126;51.560;14.368;2024-03-08T01:50:50;100923.72;;;9.71;61.41
65553;BME280;72126;51.560;14.368;2024-03-08T01:53:17;100920.28;;;9.71;61.82
65553;BME280;72126;51.560;14.368;2024-03-08T01:55:44;100919.44;;;9.70;61.61
65553;BME280;72126;51.560;14.368;2024-03-08T01:58:11;100914.34;;;9.69;61.43
65553;BME280;72126;51.560;14.368;2024-03-08T02:00:39;100911.88;;;9.67;61.76
65553;BME280;72126;51.560;14.368;2024-03-08T02:03:05;100914.34;;;9.69;61.27
65553;BME280;72126;51.560;14.368;2024-03-08T02:05:30;100904.03;;;9.67;61.79
65553;BME280;72126;51.560;14.368;2024-03-08T02:07:55;100900.59;;;9.67;61.67
65553;BME280;72126;51.560;14.368;2024-03-08T02:10:21;100897.97;;;9.67;61.70
65553;BME280;72126;51.560;14.368;2024-03-08T02:12:46;100903.34;;;9.65;61.66
65553;BME280;72126;51.560;14.368;2024-03-08T02:15:12;100900.72;;;9.65;61.30
65553;BME280;72126;51.560;14.368;2024-03-08T02:17:37;100899.06;;;9.64;61.22
65553;BME280;72126;51.560;14.368;2024-03-08T02:20:03;100896.44;;;9.64;61.74
65553;BME280;72126;51.560;14.368;2024-03-08T02:22:29;100892.19;;;9.63;61.33
65553;BME280;72126;51.560;14.368;2024-03-08T02:24:55;100889.72;;;9.62;61.71
65553;BME280;72126;51.560;14.368;2024-03-08T02:27:24;100894.94;;;9.62;61.82
65553;BME280;72126;51.560;14.368;2024-03-08T02:29:51;100887.25;;;9.60;61.44
65553;BME280;72126;51.560;14.368;2024-03-08T02:32:19;100885.56;;;9.59;61.64
65553;BME280;72126;51.560;14.368;2024-03-08T02:34:44;100892.47;;;9.60;61.36
65553;BME280;72126;51.560;14.368;2024-03-08T02:37:10;100885.56;;;9.59;61.68
65553;BME280;72126;51.560;14.368;2024-03-08T02:39:35;100886.53;;;9.58;61.78
65553;BME280;72126;51.560;14.368;2024-03-08T02:42:00;100886.53;;;9.58;61.36
65553;BME280;72126;51.560;14.368;2024-03-08T02:44:25;100884.88;;;9.57;61.48
65553;BME280;72126;51.560;14.368;2024-03-08T02:46:50;100887.50;;;9.57;61.53
65553;BME280;72126;51.560;14.368;2024-03-08T02:49:15;100878.00;;;9.56;61.43
65553;BME280;72126;51.560;14.368;2024-03-08T02:51:41;100875.38;;;9.56;61.75
65553;BME280;72126;51.560;14.368;2024-03-08T02:54:06;100885.84;;;9.56;61.39
65553;BME280;72126;51.560;14.368;2024-03-08T02:56:31;100877.31;;;9.54;61.94
65553;BME280;72126;51.560;14.368;2024-03-08T02:58:56;100868.63;;;9.53;61.67
65553;BME280;72126;51.560;14.368;2024-03-08T03:01:21;100869.59;;;9.52;61.37
65553;BME280;72126;51.560;14.368;2024-03-08T03:03:46;100869.59;;;9.52;61.30
65553;BME280;72126;51.560;14.368;2024-03-08T03:06:12;100868.78;;;9.52;61.33
65553;BME280;72126;51.560;14.368;2024-03-08T03:08:37;100867.94;;;9.51;61.73
65553;BME280;72126;51.560;14.368;2024-03-08T03:11:02;100868.91;;;9.50;61.28
65553;BME280;72126;51.560;14.368;2024-03-08T03:13:27;100862.88;;;9.50;61.16
65553;BME280;72126;51.560;14.368;2024-03-08T03:15:52;100864.66;;;9.49;61.37
65553;BME280;72126;51.560;14.368;2024-03-08T03:18:18;100861.22;;;9.49;61.30
65553;BME280;72126;51.560;14.368;2024-03-08T03:20:43;100863.13;;;9.47;61.36
65553;BME280;72126;51.560;14.368;2024-03-08T03:23:09;100870.00;;;9.48;61.62
65553;BME280;72126;51.560;14.368;2024-03-08T03:25:35;100860.50;;;9.47;61.25
65553;BME280;72126;51.560;14.368;2024-03-08T03:28:03;100862.28;;;9.46;61.57
65553;BME280;72126;51.560;14.368;2024-03-08T03:30:29;100866.69;;;9.46;61.75
65553;BME280;72126;51.560;14.368;2024-03-08T03:32:54;100871.91;;;9.46;62.10
65553;BME280;72126;51.560;14.368;2024-03-08T03:35:20;100874.53;;;9.46;61.60
65553;BME280;72126;51.560;14.368;2024-03-08T03:37:46;100867.66;;;9.45;61.65
65553;BME280;72126;51.560;14.368;2024-03-08T03:40:12;100872.06;;;9.44;61.68
65553;BME280;72126;51.560;14.368;2024-03-08T03:42:37;100863.41;;;9.44;61.27
65553;BME280;72126;51.560;14.368;2024-03-08T03:45:03;100869.59;;;9.43;61.39
65553;BME280;72126;51.560;14.368;2024-03-08T03:47:28;100876.56;;;9.42;61.24
65553;BME280;72126;51.560;14.368;2024-03-08T03:49:53;100868.75;;;9.42;61.14
65553;BME280;72126;51.560;14.368;2024-03-08T03:52:18;100866.28;;;9.41;61.11
65553;BME280;72126;51.560;14.368;2024-03-08T03:54:43;100862.81;;;9.40;61.80
65553;BME280;72126;51.560;14.368;2024-03-08T03:57:09;100862.81;;;9.40;61.05
65553;BME280;72126;51.560;14.368;2024-03-08T03:59:34;100862.97;;;9.39;61.64
65553;BME280;72126;51.560;14.368;2024-03-08T04:01:59;100862.97;;;9.39;61.41
65553;BME280;72126;51.560;14.368;2024-03-08T04:04:24;100862.16;;;9.38;61.58
65553;BME280;72126;51.560;14.368;2024-03-08T04:06:49;100854.31;;;9.38;61.41
65553;BME280;72126;51.560;14.368;2024-03-08T04:09:14;100859.66;;;9.37;61.32
65553;BME280;72126;51.560;14.368;2024-03-08T04:11:40;100848.25;;;9.38;61.40
65553;BME280;72126;51.560;14.368;2024-03-08T04:14:05;100849.34;;;9.35;61.35
65553;BME280;72126;51.560;14.368;2024-03-08T04:16:31;100846.72;;;9.35;61.04
65553;BME280;72126;51.560;14.368;2024-03-08T04:18:56;100851.13;;;9.35;61.87
65553;BME280;72126;51.560;14.368;2024-03-08T04:21:21;100846.03;;;9.33;61.65
65553;BME280;72126;51.560;14.368;2024-03-08T04:23:46;100857.31;;;9.34;61.54
65553;BME280;72126;51.560;14.368;2024-03-08T04:26:11;100852.09;;;9.34;61.27
65553;BME280;72126;51.560;14.368;2024-03-08T04:28:37;100846.28;;;9.30;61.39
65553;BME280;72126;51.560;14.368;2024-03-08T04:31:03;100850.44;;;9.33;61.33
65553;BME280;72126;51.560;14.368;2024-03-08T04:33:28;100850.56;;;9.31;61.30
65553;BME280;72126;51.560;14.368;2024-03-08T04:35:53;100841.91;;;9.31;61.26
65553;BME280;72126;51.560;14.368;2024-03-08T04:38:18;100842.88;;;9.30;61.32
65553;BME280;72126;51.560;14.368;2024-03-08T04:40:44;100842.88;;;9.30;61.75
65553;BME280;72126;51.560;14.368;2024-03-08T04:43:09;100843.81;;;9.28;61.28
65553;BME280;72126;51.560;14.368;2024-03-08T04:45:34;100840.53;;;9.26;61.18
65553;BME280;72126;51.560;14.368;2024-03-08T04:47:59;100836.97;;;9.27;61.40
65553;BME280;72126;51.560;14.368;2024-03-08T04:50:24;100838.75;;;9.27;61.85
65553;BME280;72126;51.560;14.368;2024-03-08T04:52:50;100832.69;;;9.26;61.56
65553;BME280;72126;51.560;14.368;2024-03-08T04:55:15;100834.47;;;9.26;61.06
65553;BME280;72126;51.560;14.368;2024-03-08T04:57:40;100839.72;;;9.26;61.76
65553;BME280;72126;51.560;14.368;2024-03-08T05:00:06;100836.38;;;9.24;61.60
65553;BME280;72126;51.560;14.368;2024-03-08T05:02:34;100833.78;;;9.24;61.18
65553;BME280;72126;51.560;14.368;2024-03-08T05:04:59;100833.78;;;9.24;61.10
65553;BME280;72126;51.560;14.368;2024-03-08T05:07:24;100832.13;;;9.23;61.77
65553;BME280;72126;51.560;14.368;2024-03-08T05:09:49;100833.91;;;9.22;61.48
65553;BME280;72126;51.560;14.368;2024-03-08T05:12:15;100829.66;;;9.21;61.54
65553;BME280;72126;51.560;14.368;2024-03-08T05:14:40;100833.09;;;9.22;61.58
65553;BME280;72126;51.560;14.368;2024-03-08T05:17:05;100828.84;;;9.21;61.84
65553;BME280;72126;51.560;14.368;2024-03-08T05:19:30;100829.75;;;9.20;61.28
65553;BME280;72126;51.560;14.368;2024-03-08T05:21:55;100826.31;;;9.19;61.14
65553;BME280;72126;51.560;14.368;2024-03-08T05:24:20;100831.56;;;9.19;61.54
65553;BME280;72126;51.560;14.368;2024-03-08T05:26:46;100827.28;;;9.18;61.54
65553;BME280;72126;51.560;14.368;2024-03-08T05:29:11;100835.13;;;9.18;61.82
65553;BME280;72126;51.560;14.368;2024-03-08T05:34:12;100826.63;;;9.16;61.50
65553;BME280;72126;51.560;14.368;2024-03-08T05:36:37;100823.19;;;9.16;61.41
65553;BME280;72126;51.560;14.368;2024-03-08T05:39:02;100821.53;;;9.15;61.22
65553;BME280;72126;51.560;14.368;2024-03-08T05:41:27;100812.84;;;9.14;61.29
65553;BME280;72126;51.560;14.368;2024-03-08T05:43:52;100822.47;;;9.14;61.22
65553;BME280;72126;51.560;14.368;2024-03-08T05:46:18;100826.75;;;9.15;61.25
65553;BME280;72126;51.560;14.368;2024-03-08T05:48:43;100823.44;;;9.13;61.49
65553;BME280;72126;51.560;14.368;2024-03-08T05:51:08;100826.88;;;9.13;61.32
65553;BME280;72126;51.560;14.368;2024-03-08T05:53:33;100814.91;;;9.11;61.38
65553;BME280;72126;51.560;14.368;2024-03-08T05:55:58;100822.59;;;9.12;61.56
65553;BME280;72126;51.560;14.368;2024-03-08T05:58:24;100821.78;;;9.12;61.26
65553;BME280;72126;51.560;14.368;2024-03-08T06:00:49;100823.56;;;9.11;61.87
65553;BME280;72126;51.560;14.368;2024-03-08T06:03:14;100821.94;;;9.10;61.50
65553;BME280;72126;51.560;14.368;2024-03-08T06:05:40;100823.72;;;9.10;61.22
65553;BME280;72126;51.560;14.368;2024-03-08T06:08:05;100825.50;;;9.09;61.42
65553;BME280;72126;51.560;14.368;2024-03-08T06:10:30;100829.03;;;9.08;61.67
65553;BME280;72126;51.560;14.368;2024-03-08T06:12:55;100820.38;;;9.08;61.16
65553;BME280;72126;51.560;14.368;2024-03-08T06:15:21;100816.94;;;9.07;61.27
65553;BME280;72126;51.560;14.368;2024-03-08T06:17:46;100815.44;;;9.05;61.36
65553;BME280;72126;51.560;14.368;2024-03-08T06:20:11;100830.28;;;9.04;61.93
65553;BME280;72126;51.560;14.368;2024-03-08T06:22:40;100819.84;;;9.04;61.37
65553;BME280;72126;51.560;14.368;2024-03-08T06:25:05;100823.28;;;9.05;60.98
65553;BME280;72126;51.560;14.368;2024-03-08T06:27:30;100827.69;;;9.04;61.75
65553;BME280;72126;51.560;14.368;2024-03-08T06:29:55;100825.06;;;9.04;61.04
65553;BME280;72126;51.560;14.368;2024-03-08T06:32:21;100820.78;;;9.03;61.47
65553;BME280;72126;51.560;14.368;2024-03-08T06:34:46;100823.69;;;9.00;61.33
65553;BME280;72126;51.560;14.368;2024-03-08T06:37:11;100818.16;;;9.03;61.55
65553;BME280;72126;51.560;14.368;2024-03-08T06:39:36;100816.66;;;9.00;61.75
65553;BME280;72126;51.560;14.368;2024-03-08T06:42:01;100818.44;;;9.00;61.30
65553;BME280;72126;51.560;14.368;2024-03-08T06:44:27;100817.50;;;9.01;61.01
65553;BME280;72126;51.560;14.368;2024-03-08T06:46:52;100815.84;;;9.00;61.43
65553;BME280;72126;51.560;14.368;2024-03-08T06:49:17;100808.97;;;8.99;61.32
65553;BME280;72126;51.560;14.368;2024-03-08T06:51:42;100815.97;;;8.98;61.75
65553;BME280;72126;51.560;14.368;2024-03-08T06:54:07;100813.38;;;8.98;61.36
65553;BME280;72126;51.560;14.368;2024-03-08T06:56:33;100818.59;;;8.98;61.14
65553;BME280;72126;51.560;14.368;2024-03-08T06:58:58;100823.81;;;8.98;61.58
65553;BME280;72126;51.560;14.368;2024-03-08T07:01:23;100819.53;;;8.97;61.32
65553;BME280;72126;51.560;14.368;2024-03-08T07:03:48;100810.88;;;8.97;61.00
65553;BME280;72126;51.560;14.368;2024-03-08T07:06:13;100810.88;;;8.97;61.38
65553;BME280;72126;51.560;14.368;2024-03-08T07:08:38;100816.09;;;8.97;61.66
65553;BME280;72126;51.560;14.368;2024-03-08T07:11:04;100811.84;;;8.96;61.77
65553;BME280;72126;51.560;14.368;2024-03-08T07:13:29;100801.38;;;8.96;61.47
65553;BME280;72126;51.560;14.368;2024-03-08T07:15:54;100807.44;;;8.96;61.37
65553;BME280;72126;51.560;14.368;2024-03-08T07:18:19;100803.19;;;8.95;61.84
65553;BME280;72126;51.560;14.368;2024-03-08T07:20:44;100803.19;;;8.95;61.08
65553;BME280;72126;51.560;14.368;2024-03-08T07:23:09;100806.75;;;8.94;61.36
65553;BME280;72126;51.560;14.368;2024-03-08T07:25:35;100804.97;;;8.95;61.60
65553;BME280;72126;51.560;14.368;2024-03-08T07:28:00;100804.97;;;8.95;61.19
65553;BME280;72126;51.560;14.368;2024-03-08T07:30:26;100797.13;;;8.95;61.55
65553;BME280;72126;51.560;14.368;2024-03-08T07:32:52;100791.09;;;8.94;61.14
65553;BME280;72126;51.560;14.368;2024-03-08T07:35:17;100798.91;;;8.94;61.49
65553;BME280;72126;51.560;14.368;2024-03-08T07:37:42;100790.25;;;8.94;61.82
65553;BME280;72126;51.560;14.368;2024-03-08T07:40:08;100791.09;;;8.94;61.65
65553;BME280;72126;51.560;14.368;2024-03-08T07:42:33;100785.03;;;8.94;61.45
65553;BME280;72126;51.560;14.368;2024-03-08T07:44:58;100792.03;;;8.93;61.63
65553;BME280;72126;51.560;14.368;2024-03-08T07:47:23;100795.47;;;8.94;61.59
65553;BME280;72126;51.560;14.368;2024-03-08T07:49:48;100791.22;;;8.93;61.29
65553;BME280;72126;51.560;14.368;2024-03-08T07:52:14;100792.03;;;8.93;61.32
65553;BME280;72126;51.560;14.368;2024-03-08T07:54:39;100790.41;;;8.92;61.55
65553;BME280;72126;51.560;14.368;2024-03-08T07:57:04;100800.69;;;8.94;61.54
65553;BME280;72126;51.560;14.368;2024-03-08T07:59:29;100788.72;;;8.91;61.87
65553;BME280;72126;51.560;14.368;2024-03-08T08:01:54;100794.66;;;8.93;61.75
65553;BME280;72126;51.560;14.368;2024-03-08T08:04:20;100788.63;;;8.93;61.45
65553;BME280;72126;51.560;14.368;2024-03-08T08:06:45;100793.94;;;8.91;61.58
65553;BME280;72126;51.560;14.368;2024-03-08T08:09:10;100788.63;;;8.93;61.38
65553;BME280;72126;51.560;14.368;2024-03-08T08:11:35;100793.00;;;8.92;61.23
65553;BME280;72126;51.560;14.368;2024-03-08T08:14:00;100784.47;;;8.90;61.88
65553;BME280;72126;51.560;14.368;2024-03-08T08:16:25;100781.72;;;8.92;61.50
65553;BME280;72126;51.560;14.368;2024-03-08T08:18:51;100776.50;;;8.92;61.90
65553;BME280;72126;51.560;14.368;2024-03-08T08:21:16;100773.88;;;8.92;62.08
65553;BME280;72126;51.560;14.368;2024-03-08T08:23:41;100776.50;;;8.92;61.64
65553;BME280;72126;51.560;14.368;2024-03-08T08:26:06;100772.13;;;8.92;61.92
65553;BME280;72126;51.560;14.368;2024-03-08T08:28:31;100773.78;;;8.93;61.74
65553;BME280;72126;51.560;14.368;2024-03-08T08:30:57;100771.28;;;8.92;61.71
65553;BME280;72126;51.560;14.368;2024-03-08T08:33:22;100775.56;;;8.93;61.61
65553;BME280;72126;51.560;14.368;2024-03-08T08:35:47;100769.63;;;8.91;61.50
65553;BME280;72126;51.560;14.368;2024-03-08T08:38:12;100767.72;;;8.93;61.50
65553;BME280;72126;51.560;14.368;2024-03-08T08:40:37;100768.53;;;8.93;61.75
65553;BME280;72126;51.560;14.368;2024-03-08T08:43:03;100771.97;;;8.94;61.59
65553;BME280;72126;51.560;14.368;2024-03-08T08:45:28;100761.53;;;8.94;61.41
65553;BME280;72126;51.560;14.368;2024-03-08T08:47:53;100757.97;;;8.95;61.16
65553;BME280;72126;51.560;14.368;2024-03-08T08:50:18;100755.34;;;8.95;61.86
65553;BME280;72126;51.560;14.368;2024-03-08T08:52:43;100755.34;;;8.95;61.74
65553;BME280;72126;51.560;14.368;2024-03-08T08:55:09;100752.75;;;8.95;61.34
65553;BME280;72126;51.560;14.368;2024-03-08T08:57:34;100750.94;;;8.95;62.01
65553;BME280;72126;51.560;14.368;2024-03-08T08:59:59;100745.72;;;8.95;61.46
65553;BME280;72126;51.560;14.368;2024-03-08T09:02:25;100745.59;;;8.97;61.66
65553;BME280;72126;51.560;14.368;2024-03-08T09:04:50;100734.31;;;8.96;62.01
65553;BME280;72126;51.560;14.368;2024-03-08T09:07:15;100734.31;;;8.96;61.51
65553;BME280;72126;51.560;14.368;2024-03-08T09:09:42;100731.59;;;8.98;61.29
65553;BME280;72126;51.560;14.368;2024-03-08T09:12:07;100735.84;;;8.99;61.76
65553;BME280;72126;51.560;14.368;2024-03-08T09:14:32;100746.28;;;8.99;62.05
65553;BME280;72126;51.560;14.368;2024-03-08T09:16:57;100736.66;;;8.99;61.58
65553;BME280;72126;51.560;14.368;2024-03-08T09:19:22;100736.53;;;9.01;61.71
65553;BME280;72126;51.560;14.368;2024-03-08T09:21:48;100731.31;;;9.01;61.79
65553;BME280;72126;51.560;14.368;2024-03-08T09:24:13;100732.94;;;9.02;62.00
65553;BME280;72126;51.560;14.368;2024-03-08T09:26:38;100725.13;;;9.02;61.48
65553;BME280;72126;51.560;14.368;2024-03-08T09:29:03;100727.63;;;9.04;62.04
65553;BME280;72126;51.560;14.368;2024-03-08T09:31:28;100732.69;;;9.05;61.95
65553;BME280;72126;51.560;14.368;2024-03-08T09:33:53;100721.28;;;9.06;61.35
65553;BME280;72126;51.560;14.368;2024-03-08T09:36:19;100723.91;;;9.06;61.90
65553;BME280;72126;51.560;14.368;2024-03-08T09:38:44;100716.06;;;9.06;61.61
65553;BME280;72126;51.560;14.368;2024-03-08T09:41:09;100725.53;;;9.07;61.39
65553;BME280;72126;51.560;14.368;2024-03-08T09:43:35;100724.56;;;9.08;61.42
65553;BME280;72126;51.560;14.368;2024-03-08T09:46:00;100714.94;;;9.09;61.64
65553;BME280;72126;51.560;14.368;2024-03-08T09:48:25;100710.56;;;9.09;61.57
65553;BME280;72126;51.560;14.368;2024-03-08T09:50:51;100711.41;;;9.10;61.84
65553;BME280;72126;51.560;14.368;2024-03-08T09:53:16;100707.81;;;9.11;61.42
65553;BME280;72126;51.560;14.368;2024-03-08T09:55:41;100715.50;;;9.12;61.61
65553;BME280;72126;51.560;14.368;2024-03-08T09:58:07;100699.03;;;9.12;61.34
65553;BME280;72126;51.560;14.368;2024-03-08T10:00:33;100705.06;;;9.12;61.44
65553;BME280;72126;51.560;14.368;2024-03-08T10:03:02;100701.50;;;9.13;61.36
65553;BME280;72126;51.560;14.368;2024-03-08T10:05:27;100691.88;;;9.14;61.36
65553;BME280;72126;51.560;14.368;2024-03-08T10:07:52;100690.06;;;9.14;61.31
65553;BME280;72126;51.560;14.368;2024-03-08T10:10:17;100689.13;;;9.15;61.38
65553;BME280;72126;51.560;14.368;2024-03-08T10:12:43;100682.94;;;9.16;61.36
65553;BME280;72126;51.560;14.368;2024-03-08T10:15:08;100677.72;;;9.16;61.36
65553;BME280;72126;51.560;14.368;2024-03-08T10:17:36;100680.19;;;9.18;61.16
65553;BME280;72126;51.560;14.368;2024-03-08T10:20:01;100669.75;;;9.18;61.89
65553;BME280;72126;51.560;14.368;2024-03-08T10:22:27;100672.22;;;9.19;61.19
65553;BME280;72126;51.560;14.368;2024-03-08T10:24:52;100666.03;;;9.20;61.68
65553;BME280;72126;51.560;14.368;2024-03-08T10:27:18;100659.84;;;9.21;61.46
65553;BME280;72126;51.560;14.368;2024-03-08T10:29:47;100659.69;;;9.23;61.12
65553;BME280;72126;51.560;14.368;2024-03-08T10:32:12;100653.66;;;9.22;61.50
65553;BME280;72126;51.560;14.368;2024-03-08T10:34:37;100654.34;;;9.24;61.43
65553;BME280;72126;51.560;14.368;2024-03-08T10:37:07;100658.59;;;9.25;61.21
65553;BME280;72126;51.560;14.368;2024-03-08T10:39:36;100652.44;;;9.26;61.86
65553;BME280;72126;51.560;14.368;2024-03-08T10:42:03;100660.13;;;9.28;61.21
65553;BME280;72126;51.560;14.368;2024-03-08T10:49:31;100645.94;;;9.31;61.68
65553;BME280;72126;51.560;14.368;2024-03-08T10:51:57;100643.22;;;9.32;61.31
65553;BME280;72126;51.560;14.368;2024-03-08T10:54:23;100638.66;;;9.34;61.43
65553;BME280;72126;51.560;14.368;2024-03-08T10:56:50;100643.75;;;9.36;61.09
65553;BME280;72126;51.560;14.368;2024-03-08T10:59:19;100641.13;;;9.36;61.57
65553;BME280;72126;51.560;14.368;2024-03-08T11:01:45;100631.38;;;9.38;61.60
65553;BME280;72126;51.560;14.368;2024-03-08T11:04:10;100627.78;;;9.39;61.63
65553;BME280;72126;51.560;14.368;2024-03-08T11:09:01;100632.72;;;9.42;61.50
65553;BME280;72126;51.560;14.368;2024-03-08T11:11:31;100627.50;;;9.42;61.63
65553;BME280;72126;51.560;14.368;2024-03-08T11:13:56;100625.59;;;9.44;61.36
65553;BME280;72126;51.560;14.368;2024-03-08T11:18:50;100621.03;;;9.46;61.15
65553;BME280;72126;51.560;14.368;2024-03-08T11:21:18;100617.44;;;9.47;61.19
65553;BME280;72126;51.560;14.368;2024-03-08T11:23:43;100623.50;;;9.47;61.45
65553;BME280;72126;51.560;14.368;2024-03-08T11:26:21;100618.16;;;9.49;61.59
65553;BME280;72126;51.560;14.368;2024-03-08T11:28:48;100618.81;;;9.51;61.27
65553;BME280;72126;51.560;14.368;2024-03-08T11:31:24;100615.25;;;9.52;61.30
65553;BME280;72126;51.560;14.368;2024-03-08T11:33:50;100602.88;;;9.54;61.45
65553;BME280;72126;51.560;14.368;2024-03-08T11:36:23;100607.13;;;9.55;61.77
65553;BME280;72126;51.560;14.368;2024-03-08T11:38:49;100601.75;;;9.57;61.49
65553;BME280;72126;51.560;14.368;2024-03-08T11:41:24;100606.00;;;9.58;61.35
65553;BME280;72126;51.560;14.368;2024-03-08T11:44:00;100600.53;;;9.61;61.60
65553;BME280;72126;51.560;14.368;2024-03-08T11:46:26;100594.47;;;9.60;61.55
65553;BME280;72126;51.560;14.368;2024-03-08T11:48:54;100595.00;;;9.64;61.50
65553;BME280;72126;51.560;14.368;2024-03-08T11:51:19;100589.66;;;9.65;61.56
65553;BME280;72126;51.560;14.368;2024-03-08T11:53:44;100587.84;;;9.66;61.56
65553;BME280;72126;51.560;14.368;2024-03-08T11:56:11;100580.81;;;9.66;61.36
65553;BME280;72126;51.560;14.368;2024-03-08T11:58:37;100576.13;;;9.70;61.49
65553;BME280;72126;51.560;14.368;2024-03-08T12:01:04;100572.00;;;9.67;61.16
65553;BME280;72126;51.560;14.368;2024-03-08T12:03:30;100575.03;;;9.72;61.54
65553;BME280;72126;51.560;14.368;2024-03-08T12:05:58;100575.84;;;9.73;61.11
65553;BME280;72126;51.560;14.368;2024-03-08T12:08:23;100574.88;;;9.74;61.62
65553;BME280;72126;51.560;14.368;2024-03-08T12:10:50;100557.00;;;9.69;61.47
65553;BME280;72126;51.560;14.368;2024-03-08T12:13:16;100560.00;;;9.74;61.60
65553;BME280;72126;51.560;14.368;2024-03-08T12:15:41;100562.47;;;9.76;61.43
65553;BME280;72126;51.560;14.368;2024-03-08T12:18:07;100558.09;;;9.76;61.22
65553;BME280;72126;51.560;14.368;2024-03-08T12:20:32;100550.91;;;9.78;61.43
65553;BME280;72126;51.560;14.368;2024-03-08T12:22:58;100557.78;;;9.79;61.10
65553;BME280;72126;51.560;14.368;2024-03-08T12:25:30;100556.81;;;9.80;61.30
65553;BME280;72126;51.560;14.368;2024-03-08T12:27:55;100547.19;;;9.81;61.22
65553;BME280;72126;51.560;14.368;2024-03-08T12:30:27;100546.50;;;9.79;61.02
65553;BME280;72126;51.560;14.368;2024-03-08T12:32:58;100540.03;;;9.83;60.87
65553;BME280;72126;51.560;14.368;2024-03-08T12:35:28;100529.69;;;9.81;60.89
65553;BME280;72126;51.560;14.368;2024-03-08T12:37:56;100531.38;;;9.83;60.98
65553;BME280;72126;51.560;14.368;2024-03-08T12:40:29;100523.53;;;9.83;61.03
65553;BME280;72126;51.560;14.368;2024-03-08T12:42:55;100515.69;;;9.83;60.71
65553;BME280;72126;51.560;14.368;2024-03-08T12:45:22;100513.72;;;9.85;61.02
65553;BME280;72126;51.560;14.368;2024-03-08T12:47:47;100515.38;;;9.86;61.01
65553;BME280;72126;51.560;14.368;2024-03-08T12:50:12;100513.44;;;9.88;60.64
65553;BME280;72126;51.560;14.368;2024-03-08T12:52:37;100512.47;;;9.89;61.11
65553;BME280;72126;51.560;14.368;2024-03-08T12:55:03;100509.72;;;9.90;60.85